KSPG/SPG METAR and TAF weather

Enter ICAO airport designator
Station Type Date Time Source
KSPG METAR 2019/06/27 09:53 UTC NOAA

KSPG 270953Z AUTO 10007KT 10SM CLR 28/23 A3006 RMK AO2 SLP177 T02830233


Station Type Date Time Source
KSPG Decoded METAR 2019/06/27 09:53 UTC NOAA

ST PETERSBURG WHITTED AIRPORT , FL, United States (KSPG) 27-46N 082-38W 2M
Jun 27, 2019 - 05:53 AM EDT / 2019.06.27 0953 UTC
Wind: from the E (100 degrees) at 8 MPH (7 KT):0
Visibility: 10 mile(s):0
Sky conditions: clear
Temperature: 82.9 F (28.3 C)
Dew Point: 73.9 F (23.3 C)
Relative Humidity: 74%
Pressure (altimeter): 30.06 in. Hg (1017 hPa)
ob: KSPG 270953Z AUTO 10007KT 10SM CLR 28/23 A3006 RMK AO2 SLP177 T02830233
cycle: 10

Station Type Date Time Source
KSPG TAF UTC NOAA

Error!

Example: see airport list